sensor_id;sensor_type;location;lat;lon;timestamp;pressure;altitude;pressure_sealevel;temperature;humidity
29733;BME280;16643;43.158;25.302;2023-04-07T00:00:25;97799.97;;;5.32;65.47
29733;BME280;16643;43.158;25.302;2023-04-07T00:02:51;97824.94;;;5.30;65.08
29733;BME280;16643;43.158;25.302;2023-04-07T00:05:17;97812.09;;;5.26;65.82
29733;BME280;16643;43.158;25.302;2023-04-07T00:07:42;97822.28;;;5.32;65.10
29733;BME280;16643;43.158;25.302;2023-04-07T00:10:08;97821.34;;;5.39;65.56
29733;BME280;16643;43.158;25.302;2023-04-07T00:12:34;97801.78;;;5.26;65.32
29733;BME280;16643;43.158;25.302;2023-04-07T00:15:00;97806.19;;;5.19;65.71
29733;BME280;16643;43.158;25.302;2023-04-07T00:17:26;97806.06;;;5.27;65.20
29733;BME280;16643;43.158;25.302;2023-04-07T00:19:52;97818.09;;;5.28;65.58
29733;BME280;16643;43.158;25.302;2023-04-07T00:22:18;97811.22;;;5.27;65.27
29733;BME280;16643;43.158;25.302;2023-04-07T00:24:43;97802.66;;;5.26;65.38
29733;BME280;16643;43.158;25.302;2023-04-07T00:27:09;97806.09;;;5.25;64.09
29733;BME280;16643;43.158;25.302;2023-04-07T00:29:34;97798.41;;;5.21;63.40
29733;BME280;16643;43.158;25.302;2023-04-07T00:32:00;97807.06;;;5.18;64.28
29733;BME280;16643;43.158;25.302;2023-04-07T00:34:26;97806.13;;;5.22;63.60
29733;BME280;16643;43.158;25.302;2023-04-07T00:36:51;97804.44;;;5.20;64.49
29733;BME280;16643;43.158;25.302;2023-04-07T00:39:18;97812.06;;;5.29;64.04
29733;BME280;16643;43.158;25.302;2023-04-07T00:41:45;97803.56;;;5.21;63.40
29733;BME280;16643;43.158;25.302;2023-04-07T00:44:11;97771.16;;;5.06;63.72
29733;BME280;16643;43.158;25.302;2023-04-07T00:46:37;97801.81;;;5.24;64.55
29733;BME280;16643;43.158;25.302;2023-04-07T00:49:03;97790.78;;;5.16;63.71
29733;BME280;16643;43.158;25.302;2023-04-07T00:51:28;97768.63;;;5.04;64.22
29733;BME280;16643;43.158;25.302;2023-04-07T00:53:55;97799.22;;;5.24;64.81
29733;BME280;16643;43.158;25.302;2023-04-07T00:56:21;97818.22;;;5.19;63.98
29733;BME280;16643;43.158;25.302;2023-04-07T00:58:47;97788.31;;;5.07;63.59
29733;BME280;16643;43.158;25.302;2023-04-07T01:01:17;97815.66;;;5.17;64.01
29733;BME280;16643;43.158;25.302;2023-04-07T01:03:50;97773.72;;;5.07;64.72
29733;BME280;16643;43.158;25.302;2023-04-07T01:06:17;97791.69;;;5.10;64.38
29733;BME280;16643;43.158;25.302;2023-04-07T01:09:02;97786.50;;;5.15;63.84
29733;BME280;16643;43.158;25.302;2023-04-07T01:11:43;97778.75;;;5.17;64.43
29733;BME280;16643;43.158;25.302;2023-04-07T01:14:14;97796.66;;;5.24;63.51
29733;BME280;16643;43.158;25.302;2023-04-07T01:16:48;97800.13;;;5.20;64.09
29733;BME280;16643;43.158;25.302;2023-04-07T01:22:25;97794.19;;;5.17;62.87
29733;BME280;16643;43.158;25.302;2023-04-07T01:27:29;97787.53;;;5.02;62.85
29733;BME280;16643;43.158;25.302;2023-04-07T01:30:00;97784.03;;;5.07;62.68
29733;BME280;16643;43.158;25.302;2023-04-07T01:32:29;97787.41;;;5.09;62.12
29733;BME280;16643;43.158;25.302;2023-04-07T01:34:56;97795.16;;;5.08;61.80
29733;BME280;16643;43.158;25.302;2023-04-07T01:37:24;97790.06;;;5.05;61.59
29733;BME280;16643;43.158;25.302;2023-04-07T01:39:51;97773.81;;;5.00;62.19
29733;BME280;16643;43.158;25.302;2023-04-07T01:42:18;97778.94;;;5.03;62.36
29733;BME280;16643;43.158;25.302;2023-04-07T01:44:44;97778.91;;;5.04;61.31
29733;BME280;16643;43.158;25.302;2023-04-07T01:47:11;97798.53;;;5.13;62.67
29733;BME280;16643;43.158;25.302;2023-04-07T01:49:39;97789.25;;;5.01;62.04
29733;BME280;16643;43.158;25.302;2023-04-07T01:52:06;97786.81;;;4.91;61.98
29733;BME280;16643;43.158;25.302;2023-04-07T01:54:33;97780.84;;;4.87;62.38
29733;BME280;16643;43.158;25.302;2023-04-07T01:56:58;97789.44;;;4.86;62.01
29733;BME280;16643;43.158;25.302;2023-04-07T01:59:26;97779.19;;;4.83;62.54
29733;BME280;16643;43.158;25.302;2023-04-07T02:01:51;97787.66;;;4.93;62.41
29733;BME280;16643;43.158;25.302;2023-04-07T02:04:30;97791.00;;;4.98;62.95
29733;BME280;16643;43.158;25.302;2023-04-07T02:07:08;97786.69;;;5.00;62.65
29733;BME280;16643;43.158;25.302;2023-04-07T02:09:37;97784.97;;;5.00;63.68
29733;BME280;16643;43.158;25.302;2023-04-07T02:12:07;97774.91;;;4.82;63.12
29733;BME280;16643;43.158;25.302;2023-04-07T02:14:34;97786.09;;;4.81;63.84
29733;BME280;16643;43.158;25.302;2023-04-07T02:17:01;97779.19;;;4.83;64.68
29733;BME280;16643;43.158;25.302;2023-04-07T02:19:28;97787.78;;;4.84;64.01
29733;BME280;16643;43.158;25.302;2023-04-07T02:21:55;97787.81;;;4.79;64.03
29733;BME280;16643;43.158;25.302;2023-04-07T02:24:21;97790.41;;;4.79;65.07
29733;BME280;16643;43.158;25.302;2023-04-07T02:26:47;97780.09;;;4.79;64.68
29733;BME280;16643;43.158;25.302;2023-04-07T02:29:13;97761.47;;;4.60;65.03
29733;BME280;16643;43.158;25.302;2023-04-07T02:31:39;97758.19;;;4.48;65.07
29733;BME280;16643;43.158;25.302;2023-04-07T02:34:04;97771.75;;;4.60;64.26
29733;BME280;16643;43.158;25.302;2023-04-07T02:36:30;97782.97;;;4.55;63.76
29733;BME280;16643;43.158;25.302;2023-04-07T02:38:56;97776.19;;;4.49;65.41
29733;BME280;16643;43.158;25.302;2023-04-07T02:41:21;97770.19;;;4.50;64.72
29733;BME280;16643;43.158;25.302;2023-04-07T02:43:47;97775.47;;;4.36;65.97
29733;BME280;16643;43.158;25.302;2023-04-07T02:46:16;97757.53;;;4.30;65.37
29733;BME280;16643;43.158;25.302;2023-04-07T02:48:41;97766.03;;;4.37;66.35
29733;BME280;16643;43.158;25.302;2023-04-07T02:51:07;97782.34;;;4.36;66.21
29733;BME280;16643;43.158;25.302;2023-04-07T02:53:33;97799.38;;;4.46;66.06
29733;BME280;16643;43.158;25.302;2023-04-07T02:55:58;97780.69;;;4.29;65.84
29733;BME280;16643;43.158;25.302;2023-04-07T02:58:24;97772.22;;;4.21;65.09
29733;BME280;16643;43.158;25.302;2023-04-07T03:00:50;97786.72;;;4.26;65.89
29733;BME280;16643;43.158;25.302;2023-04-07T03:03:15;97780.78;;;4.20;65.17
29733;BME280;16643;43.158;25.302;2023-04-07T03:05:41;97787.56;;;4.28;66.47
29733;BME280;16643;43.158;25.302;2023-04-07T03:08:06;97792.00;;;4.14;66.94
29733;BME280;16643;43.158;25.302;2023-04-07T03:10:32;97797.06;;;4.20;67.40
29733;BME280;16643;43.158;25.302;2023-04-07T03:12:58;97773.97;;;4.17;67.67
29733;BME280;16643;43.158;25.302;2023-04-07T03:15:23;97745.06;;;3.94;67.14
29733;BME280;16643;43.158;25.302;2023-04-07T03:17:49;97796.19;;;4.21;66.93
29733;BME280;16643;43.158;25.302;2023-04-07T03:20:15;97769.84;;;4.01;68.52
29733;BME280;16643;43.158;25.302;2023-04-07T03:22:41;97793.75;;;4.08;66.64
29733;BME280;16643;43.158;25.302;2023-04-07T03:25:07;97774.16;;;3.99;67.95
29733;BME280;16643;43.158;25.302;2023-04-07T03:27:32;97779.25;;;4.02;67.81
29733;BME280;16643;43.158;25.302;2023-04-07T03:29:58;97804.00;;;4.12;68.26
29733;BME280;16643;43.158;25.302;2023-04-07T03:32:24;97807.47;;;4.07;68.22
29733;BME280;16643;43.158;25.302;2023-04-07T03:34:49;97794.69;;;4.02;67.36
29733;BME280;16643;43.158;25.302;2023-04-07T03:37:15;97794.72;;;3.99;68.66
29733;BME280;16643;43.158;25.302;2023-04-07T03:39:40;97793.06;;;3.95;67.81
29733;BME280;16643;43.158;25.302;2023-04-07T03:42:06;97805.00;;;3.99;68.77
29733;BME280;16643;43.158;25.302;2023-04-07T03:44:32;97800.81;;;3.86;69.00
29733;BME280;16643;43.158;25.302;2023-04-07T03:46:58;97789.69;;;3.84;68.55
29733;BME280;16643;43.158;25.302;2023-04-07T03:49:23;97816.16;;;3.96;70.30
29733;BME280;16643;43.158;25.302;2023-04-07T03:51:49;97809.38;;;3.86;69.43
29733;BME280;16643;43.158;25.302;2023-04-07T03:54:14;97823.94;;;3.86;68.85
29733;BME280;16643;43.158;25.302;2023-04-07T03:56:40;97816.22;;;3.90;68.77
29733;BME280;16643;43.158;25.302;2023-04-07T03:59:06;97811.94;;;3.88;69.49
29733;BME280;16643;43.158;25.302;2023-04-07T04:01:32;97810.19;;;3.94;69.01
29733;BME280;16643;43.158;25.302;2023-04-07T04:03:57;97826.53;;;3.86;68.12
29733;BME280;16643;43.158;25.302;2023-04-07T04:06:23;97812.81;;;3.84;68.48
29733;BME280;16643;43.158;25.302;2023-04-07T04:08:48;97825.63;;;3.91;68.49
29733;BME280;16643;43.158;25.302;2023-04-07T04:11:14;97829.06;;;3.90;69.04
29733;BME280;16643;43.158;25.302;2023-04-07T04:13:40;97833.28;;;3.96;67.50
29733;BME280;16643;43.158;25.302;2023-04-07T04:16:06;97824.78;;;3.89;67.94
29733;BME280;16643;43.158;25.302;2023-04-07T04:18:32;97823.00;;;3.96;67.97
29733;BME280;16643;43.158;25.302;2023-04-07T04:20:58;97840.13;;;4.00;68.36
29733;BME280;16643;43.158;25.302;2023-04-07T04:23:23;97834.97;;;4.00;67.51
29733;BME280;16643;43.158;25.302;2023-04-07T04:25:49;97830.66;;;4.04;67.72
29733;BME280;16643;43.158;25.302;2023-04-07T04:28:14;97834.03;;;4.07;67.64
29733;BME280;16643;43.158;25.302;2023-04-07T04:30:40;97836.50;;;4.21;68.88
29733;BME280;16643;43.158;25.302;2023-04-07T04:33:06;97827.16;;;4.12;68.27
29733;BME280;16643;43.158;25.302;2023-04-07T04:35:32;97829.69;;;4.17;68.33
29733;BME280;16643;43.158;25.302;2023-04-07T04:37:58;97852.84;;;4.17;68.53
29733;BME280;16643;43.158;25.302;2023-04-07T04:40:23;97859.53;;;4.31;66.78
29733;BME280;16643;43.158;25.302;2023-04-07T04:42:49;97822.00;;;4.15;67.36
29733;BME280;16643;43.158;25.302;2023-04-07T04:45:14;97841.59;;;4.27;67.50
29733;BME280;16643;43.158;25.302;2023-04-07T04:47:40;97841.50;;;4.36;68.25
29733;BME280;16643;43.158;25.302;2023-04-07T04:50:08;97862.94;;;4.36;67.20
29733;BME280;16643;43.158;25.302;2023-04-07T04:52:34;97836.41;;;4.30;66.26
29733;BME280;16643;43.158;25.302;2023-04-07T04:55:00;97859.41;;;4.44;65.26
29733;BME280;16643;43.158;25.302;2023-04-07T04:57:25;97841.50;;;4.36;67.22
29733;BME280;16643;43.158;25.302;2023-04-07T04:59:51;97853.44;;;4.42;67.37
29733;BME280;16643;43.158;25.302;2023-04-07T05:02:17;97845.78;;;4.37;67.18
29733;BME280;16643;43.158;25.302;2023-04-07T05:04:42;97847.47;;;4.40;67.43
29733;BME280;16643;43.158;25.302;2023-04-07T05:07:08;97846.66;;;4.36;66.92
29733;BME280;16643;43.158;25.302;2023-04-07T05:09:33;97852.56;;;4.41;67.42
29733;BME280;16643;43.158;25.302;2023-04-07T05:11:59;97868.75;;;4.52;67.50
29733;BME280;16643;43.158;25.302;2023-04-07T05:14:26;97854.97;;;4.59;66.89
29733;BME280;16643;43.158;25.302;2023-04-07T05:16:52;97832.91;;;4.37;67.13
29733;BME280;16643;43.158;25.302;2023-04-07T05:19:19;97881.38;;;4.75;66.32
29733;BME280;16643;43.158;25.302;2023-04-07T05:21:44;97871.91;;;4.79;65.17
29733;BME280;16643;43.158;25.302;2023-04-07T05:24:10;97872.53;;;4.97;63.85
29733;BME280;16643;43.158;25.302;2023-04-07T05:26:35;97857.91;;;5.01;64.63
29733;BME280;16643;43.158;25.302;2023-04-07T05:29:02;97867.31;;;5.06;65.10
29733;BME280;16643;43.158;25.302;2023-04-07T05:31:27;97859.59;;;5.05;62.69
29733;BME280;16643;43.158;25.302;2023-04-07T05:33:53;97867.03;;;5.26;63.24
29733;BME280;16643;43.158;25.302;2023-04-07T05:36:19;97890.94;;;5.37;62.99
29733;BME280;16643;43.158;25.302;2023-04-07T05:38:44;97851.28;;;5.47;63.29
29733;BME280;16643;43.158;25.302;2023-04-07T05:41:10;97859.78;;;5.54;61.30
29733;BME280;16643;43.158;25.302;2023-04-07T05:43:36;97865.63;;;5.65;61.20
29733;BME280;16643;43.158;25.302;2023-04-07T05:46:02;97856.09;;;5.70;61.55
29733;BME280;16643;43.158;25.302;2023-04-07T05:48:28;97866.13;;;5.90;62.66
29733;BME280;16643;43.158;25.302;2023-04-07T05:50:53;97878.78;;;6.07;63.36
29733;BME280;16643;43.158;25.302;2023-04-07T05:53:19;97864.75;;;6.23;65.32
29733;BME280;16643;43.158;25.302;2023-04-07T05:55:44;97871.19;;;6.47;63.10
29733;BME280;16643;43.158;25.302;2023-04-07T05:58:10;97883.84;;;6.62;59.89
29733;BME280;16643;43.158;25.302;2023-04-07T06:00:36;97865.81;;;6.59;59.78
29733;BME280;16643;43.158;25.302;2023-04-07T06:03:01;97888.00;;;6.69;56.25
29733;BME280;16643;43.158;25.302;2023-04-07T06:05:28;97879.00;;;6.90;57.29
29733;BME280;16643;43.158;25.302;2023-04-07T06:07:53;97886.53;;;7.01;55.46
29733;BME280;16643;43.158;25.302;2023-04-07T06:10:19;97863.22;;;7.04;57.20
29733;BME280;16643;43.158;25.302;2023-04-07T06:12:45;97836.47;;;7.08;58.75
29733;BME280;16643;43.158;25.302;2023-04-07T06:15:10;97878.44;;;7.57;53.04
29733;BME280;16643;43.158;25.302;2023-04-07T06:17:36;97870.59;;;7.62;51.20
29733;BME280;16643;43.158;25.302;2023-04-07T06:20:02;97908.34;;;7.71;51.47
29733;BME280;16643;43.158;25.302;2023-04-07T06:22:27;97837.53;;;7.38;52.19
29733;BME280;16643;43.158;25.302;2023-04-07T06:24:53;97891.31;;;7.99;52.73
29733;BME280;16643;43.158;25.302;2023-04-07T06:27:20;97887.66;;;8.08;50.99
29733;BME280;16643;43.158;25.302;2023-04-07T06:29:46;97888.34;;;8.14;51.21
29733;BME280;16643;43.158;25.302;2023-04-07T06:32:12;97883.19;;;8.13;48.29
29733;BME280;16643;43.158;25.302;2023-04-07T06:34:38;97901.59;;;8.37;49.96
29733;BME280;16643;43.158;25.302;2023-04-07T06:37:03;97885.09;;;8.43;49.02
29733;BME280;16643;43.158;25.302;2023-04-07T06:39:31;97887.41;;;8.54;49.27
29733;BME280;16643;43.158;25.302;2023-04-07T06:41:56;97895.88;;;8.59;47.40
29733;BME280;16643;43.158;25.302;2023-04-07T06:44:22;97900.47;;;8.82;44.96
29733;BME280;16643;43.158;25.302;2023-04-07T06:46:48;97887.91;;;8.99;45.89
29733;BME280;16643;43.158;25.302;2023-04-07T06:49:18;97899.94;;;9.01;44.40
29733;BME280;16643;43.158;25.302;2023-04-07T06:51:44;97897.03;;;9.14;45.45
29733;BME280;16643;43.158;25.302;2023-04-07T06:54:10;97890.03;;;9.16;45.18
29733;BME280;16643;43.158;25.302;2023-04-07T06:56:40;97904.66;;;9.18;44.87
29733;BME280;16643;43.158;25.302;2023-04-07T06:59:06;97903.84;;;9.47;46.64
29733;BME280;16643;43.158;25.302;2023-04-07T07:01:32;97902.72;;;9.83;45.73
29733;BME280;16643;43.158;25.302;2023-04-07T07:03:58;97901.97;;;9.80;43.63
29733;BME280;16643;43.158;25.302;2023-04-07T07:06:25;97906.88;;;9.89;45.60
29733;BME280;16643;43.158;25.302;2023-04-07T07:08:52;97907.69;;;9.91;43.68
29733;BME280;16643;43.158;25.302;2023-04-07T07:11:17;97894.03;;;9.84;44.02
29733;BME280;16643;43.158;25.302;2023-04-07T07:13:43;97934.34;;;9.68;44.98
29733;BME280;16643;43.158;25.302;2023-04-07T07:16:10;97922.56;;;9.86;44.02
29733;BME280;16643;43.158;25.302;2023-04-07T07:18:37;97907.97;;;10.10;44.65
29733;BME280;16643;43.158;25.302;2023-04-07T07:21:03;97912.38;;;10.06;46.45
29733;BME280;16643;43.158;25.302;2023-04-07T07:23:28;97920.00;;;10.40;44.92
29733;BME280;16643;43.158;25.302;2023-04-07T07:25:54;97901.06;;;10.37;43.25
29733;BME280;16643;43.158;25.302;2023-04-07T07:28:19;97914.91;;;10.37;44.75
29733;BME280;16643;43.158;25.302;2023-04-07T07:30:46;97905.88;;;9.93;45.33
29733;BME280;16643;43.158;25.302;2023-04-07T07:33:12;97935.88;;;10.31;48.79
29733;BME280;16643;43.158;25.302;2023-04-07T07:35:38;97919.72;;;10.74;49.16
29733;BME280;16643;43.158;25.302;2023-04-07T07:38:04;97934.16;;;11.08;50.25
29733;BME280;16643;43.158;25.302;2023-04-07T07:40:30;97936.72;;;10.32;48.26
29733;BME280;16643;43.158;25.302;2023-04-07T07:42:56;97942.56;;;10.10;49.64
29733;BME280;16643;43.158;25.302;2023-04-07T07:45:21;97924.69;;;9.72;49.98
29733;BME280;16643;43.158;25.302;2023-04-07T07:47:47;97934.47;;;9.64;50.25
29733;BME280;16643;43.158;25.302;2023-04-07T07:50:13;97951.25;;;9.81;51.31
29733;BME280;16643;43.158;25.302;2023-04-07T07:52:38;97923.59;;;9.80;47.31
29733;BME280;16643;43.158;25.302;2023-04-07T07:55:05;97940.97;;;9.78;47.07
29733;BME280;16643;43.158;25.302;2023-04-07T07:57:30;97952.16;;;9.50;52.65
29733;BME280;16643;43.158;25.302;2023-04-07T07:59:56;97944.88;;;9.33;49.24
29733;BME280;16643;43.158;25.302;2023-04-07T08:02:22;97947.59;;;9.28;51.26
29733;BME280;16643;43.158;25.302;2023-04-07T08:04:53;97943.81;;;9.09;50.74
29733;BME280;16643;43.158;25.302;2023-04-07T08:07:19;97931.09;;;9.60;51.06
29733;BME280;16643;43.158;25.302;2023-04-07T08:09:46;97928.06;;;9.75;52.25
29733;BME280;16643;43.158;25.302;2023-04-07T08:12:13;97928.38;;;9.65;48.66
29733;BME280;16643;43.158;25.302;2023-04-07T08:14:39;97927.31;;;10.00;48.60
29733;BME280;16643;43.158;25.302;2023-04-07T08:17:05;97944.38;;;10.36;47.47
29733;BME280;16643;43.158;25.302;2023-04-07T08:19:31;97947.81;;;10.09;47.76
29733;BME280;16643;43.158;25.302;2023-04-07T08:21:56;97948.19;;;10.26;48.91
29733;BME280;16643;43.158;25.302;2023-04-07T08:24:22;97918.84;;;10.23;49.28
29733;BME280;16643;43.158;25.302;2023-04-07T08:26:48;97938.03;;;10.45;48.11
29733;BME280;16643;43.158;25.302;2023-04-07T08:29:14;97943.28;;;10.43;47.46
29733;BME280;16643;43.158;25.302;2023-04-07T08:31:40;97922.25;;;9.95;48.97
29733;BME280;16643;43.158;25.302;2023-04-07T08:34:06;97924.78;;;9.70;47.51
29733;BME280;16643;43.158;25.302;2023-04-07T08:36:31;97927.44;;;9.67;46.35
29733;BME280;16643;43.158;25.302;2023-04-07T08:38:57;97917.50;;;9.52;49.97
29733;BME280;16643;43.158;25.302;2023-04-07T08:41:37;97938.88;;;10.19;52.31
29733;BME280;16643;43.158;25.302;2023-04-07T08:44:03;97918.09;;;10.45;48.21
29733;BME280;16643;43.158;25.302;2023-04-07T08:46:29;97913.72;;;10.47;48.54
29733;BME280;16643;43.158;25.302;2023-04-07T08:48:56;97916.59;;;10.65;46.83
29733;BME280;16643;43.158;25.302;2023-04-07T08:51:29;97922.47;;;11.19;48.46
29733;BME280;16643;43.158;25.302;2023-04-07T08:54:16;97930.59;;;11.35;43.66
29733;BME280;16643;43.158;25.302;2023-04-07T08:56:47;97922.97;;;11.06;43.84
29733;BME280;16643;43.158;25.302;2023-04-07T08:59:14;97933.72;;;11.20;48.79
29733;BME280;16643;43.158;25.302;2023-04-07T09:01:42;97941.91;;;10.84;48.59
29733;BME280;16643;43.158;25.302;2023-04-07T09:04:09;97945.72;;;10.74;46.23
29733;BME280;16643;43.158;25.302;2023-04-07T09:06:35;97943.13;;;11.24;48.62
29733;BME280;16643;43.158;25.302;2023-04-07T09:09:02;97932.56;;;10.79;46.15
29733;BME280;16643;43.158;25.302;2023-04-07T09:11:37;97947.41;;;10.75;48.78
29733;BME280;16643;43.158;25.302;2023-04-07T09:14:03;97942.44;;;10.43;50.95
29733;BME280;16643;43.158;25.302;2023-04-07T09:16:29;97939.22;;;11.12;48.56
29733;BME280;16643;43.158;25.302;2023-04-07T09:18:55;97956.16;;;11.47;47.55
29733;BME280;16643;43.158;25.302;2023-04-07T09:21:21;97968.53;;;10.66;44.29
29733;BME280;16643;43.158;25.302;2023-04-07T09:23:46;97958.97;;;10.93;44.56
29733;BME280;16643;43.158;25.302;2023-04-07T09:26:20;97942.13;;;11.03;49.07
29733;BME280;16643;43.158;25.302;2023-04-07T09:28:56;97945.41;;;11.08;48.09
29733;BME280;16643;43.158;25.302;2023-04-07T09:31:23;97929.38;;;10.96;46.77
29733;BME280;16643;43.158;25.302;2023-04-07T09:34:23;97944.41;;;10.87;47.87
29733;BME280;16643;43.158;25.302;2023-04-07T09:36:49;97936.22;;;10.73;47.15
29733;BME280;16643;43.158;25.302;2023-04-07T09:39:15;97944.50;;;11.09;47.23
29733;BME280;16643;43.158;25.302;2023-04-07T09:41:41;97938.28;;;11.38;47.33
29733;BME280;16643;43.158;25.302;2023-04-07T09:44:06;97924.75;;;11.52;47.94
29733;BME280;16643;43.158;25.302;2023-04-07T09:46:32;97930.69;;;11.32;47.02
29733;BME280;16643;43.158;25.302;2023-04-07T09:49:02;97952.97;;;11.87;48.21
29733;BME280;16643;43.158;25.302;2023-04-07T09:51:31;97945.47;;;11.55;46.29
29733;BME280;16643;43.158;25.302;2023-04-07T09:53:58;97954.06;;;11.09;50.26
29733;BME280;16643;43.158;25.302;2023-04-07T09:56:24;97923.19;;;11.00;50.77
29733;BME280;16643;43.158;25.302;2023-04-07T09:58:51;97948.03;;;10.57;49.98
29733;BME280;16643;43.158;25.302;2023-04-07T10:01:19;97945.34;;;10.60;52.50
29733;BME280;16643;43.158;25.302;2023-04-07T10:03:45;97961.66;;;10.64;48.54
29733;BME280;16643;43.158;25.302;2023-04-07T10:06:11;97959.06;;;10.90;52.03
29733;BME280;16643;43.158;25.302;2023-04-07T10:08:40;97959.13;;;10.06;49.98
29733;BME280;16643;43.158;25.302;2023-04-07T10:11:07;97955.91;;;10.28;49.32
29733;BME280;16643;43.158;25.302;2023-04-07T10:13:35;97957.22;;;10.41;50.21
29733;BME280;16643;43.158;25.302;2023-04-07T10:16:05;97963.31;;;10.12;51.82
29733;BME280;16643;43.158;25.302;2023-04-07T10:18:32;97972.16;;;10.34;51.90
29733;BME280;16643;43.158;25.302;2023-04-07T10:21:03;97970.63;;;10.27;52.04
29733;BME280;16643;43.158;25.302;2023-04-07T10:23:51;97979.09;;;10.34;50.33
29733;BME280;16643;43.158;25.302;2023-04-07T10:26:24;97960.72;;;10.12;52.41
29733;BME280;16643;43.158;25.302;2023-04-07T10:28:55;97947.53;;;9.90;52.59
29733;BME280;16643;43.158;25.302;2023-04-07T10:31:22;97958.03;;;9.86;52.59
29733;BME280;16643;43.158;25.302;2023-04-07T10:33:50;97977.34;;;10.05;51.82
29733;BME280;16643;43.158;25.302;2023-04-07T10:36:17;97949.81;;;10.01;52.34
29733;BME280;16643;43.158;25.302;2023-04-07T10:41:39;97963.69;;;10.28;53.57
29733;BME280;16643;43.158;25.302;2023-04-07T10:44:06;97958.25;;;10.07;52.07
29733;BME280;16643;43.158;25.302;2023-04-07T10:49:11;97970.88;;;10.47;52.22
29733;BME280;16643;43.158;25.302;2023-04-07T10:51:38;97974.31;;;10.48;52.48
29733;BME280;16643;43.158;25.302;2023-04-07T10:54:20;97963.69;;;10.82;51.27
29733;BME280;16643;43.158;25.302;2023-04-07T10:57:16;97963.19;;;11.20;52.13
29733;BME280;16643;43.158;25.302;2023-04-07T11:00:17;97978.53;;;11.03;55.50
29733;BME280;16643;43.158;25.302;2023-04-07T11:02:43;97963.94;;;11.24;49.66
29733;BME280;16643;43.158;25.302;2023-04-07T11:05:19;97967.88;;;11.59;51.86
29733;BME280;16643;43.158;25.302;2023-04-07T11:07:55;97978.81;;;12.15;52.45
29733;BME280;16643;43.158;25.302;2023-04-07T11:10:24;97987.72;;;11.86;51.21
29733;BME280;16643;43.158;25.302;2023-04-07T11:13:06;97975.91;;;12.23;50.11
29733;BME280;16643;43.158;25.302;2023-04-07T11:15:34;97978.91;;;11.65;51.66
29733;BME280;16643;43.158;25.302;2023-04-07T11:18:12;97993.34;;;11.51;49.33
29733;BME280;16643;43.158;25.302;2023-04-07T11:20:43;97988.97;;;11.51;51.00
29733;BME280;16643;43.158;25.302;2023-04-07T11:23:09;97971.84;;;11.69;50.62
29733;BME280;16643;43.158;25.302;2023-04-07T11:25:35;97996.63;;;11.06;49.90
29733;BME280;16643;43.158;25.302;2023-04-07T11:28:03;97987.00;;;11.58;51.14
29733;BME280;16643;43.158;25.302;2023-04-07T11:30:29;97975.91;;;11.53;50.62
29733;BME280;16643;43.158;25.302;2023-04-07T11:32:57;97973.41;;;10.75;48.98
29733;BME280;16643;43.158;25.302;2023-04-07T11:35:24;97978.91;;;10.66;51.48
29733;BME280;16643;43.158;25.302;2023-04-07T11:37:56;97985.06;;;10.64;50.61
29733;BME280;16643;43.158;25.302;2023-04-07T11:40:36;97980.88;;;10.60;52.09
29733;BME280;16643;43.158;25.302;2023-04-07T11:43:15;97978.63;;;10.49;53.86
29733;BME280;16643;43.158;25.302;2023-04-07T11:45:41;97971.91;;;10.95;53.09
29733;BME280;16643;43.158;25.302;2023-04-07T11:48:29;97975.00;;;11.54;51.04
29733;BME280;16643;43.158;25.302;2023-04-07T11:50:55;97943.16;;;11.71;48.04
29733;BME280;16643;43.158;25.302;2023-04-07T11:53:28;97996.06;;;12.41;50.29
29733;BME280;16643;43.158;25.302;2023-04-07T11:56:08;97990.47;;;12.28;48.06
29733;BME280;16643;43.158;25.302;2023-04-07T11:58:35;97973.00;;;12.52;49.03
29733;BME280;16643;43.158;25.302;2023-04-07T12:01:03;97978.84;;;12.99;50.22
29733;BME280;16643;43.158;25.302;2023-04-07T12:03:34;97990.66;;;13.30;46.40
29733;BME280;16643;43.158;25.302;2023-04-07T12:06:02;97984.25;;;13.17;43.46
29733;BME280;16643;43.158;25.302;2023-04-07T12:08:38;97977.75;;;12.85;45.79
29733;BME280;16643;43.158;25.302;2023-04-07T12:11:04;97986.19;;;12.69;43.12
29733;BME280;16643;43.158;25.302;2023-04-07T12:13:30;97959.78;;;12.77;46.78
29733;BME280;16643;43.158;25.302;2023-04-07T12:15:59;97985.91;;;12.55;47.55
29733;BME280;16643;43.158;25.302;2023-04-07T12:18:25;98001.03;;;12.02;48.26
29733;BME280;16643;43.158;25.302;2023-04-07T12:20:51;97995.88;;;11.77;48.70
29733;BME280;16643;43.158;25.302;2023-04-07T12:23:16;97994.63;;;11.14;48.81
29733;BME280;16643;43.158;25.302;2023-04-07T12:25:42;97989.16;;;11.47;49.64
29733;BME280;16643;43.158;25.302;2023-04-07T12:28:08;97972.31;;;11.32;49.39
29733;BME280;16643;43.158;25.302;2023-04-07T12:30:33;97969.50;;;11.38;50.11
29733;BME280;16643;43.158;25.302;2023-04-07T12:32:59;97986.00;;;11.62;51.09
29733;BME280;16643;43.158;25.302;2023-04-07T12:35:27;97995.94;;;11.74;49.94
29733;BME280;16643;43.158;25.302;2023-04-07T12:37:53;97997.56;;;11.53;48.89
29733;BME280;16643;43.158;25.302;2023-04-07T12:40:19;97995.50;;;11.63;49.09
29733;BME280;16643;43.158;25.302;2023-04-07T12:42:44;97997.91;;;11.44;48.84
29733;BME280;16643;43.158;25.302;2023-04-07T12:45:10;97996.09;;;10.97;50.78
29733;BME280;16643;43.158;25.302;2023-04-07T12:47:36;97992.16;;;10.85;51.27
29733;BME280;16643;43.158;25.302;2023-04-07T12:50:01;98008.63;;;11.10;49.23
29733;BME280;16643;43.158;25.302;2023-04-07T12:52:27;98002.41;;;10.89;50.26
29733;BME280;16643;43.158;25.302;2023-04-07T12:54:53;98021.53;;;11.13;50.76
29733;BME280;16643;43.158;25.302;2023-04-07T12:57:19;98016.66;;;11.04;51.15
29733;BME280;16643;43.158;25.302;2023-04-07T12:59:45;97996.75;;;11.03;51.52
29733;BME280;16643;43.158;25.302;2023-04-07T13:02:10;98012.22;;;11.06;51.13
29733;BME280;16643;43.158;25.302;2023-04-07T13:04:38;98014.78;;;10.83;51.97
29733;BME280;16643;43.158;25.302;2023-04-07T13:07:08;98012.78;;;10.63;52.08